createdAt,value
2023-03-05T00:01:57.636Z,12.73
2023-03-05T00:04:24.978Z,14.60
2023-03-05T00:06:52.240Z,11.18
2023-03-05T00:09:19.555Z,9.95
2023-03-05T00:11:46.978Z,10.70
2023-03-05T00:14:14.343Z,11.45
2023-03-05T00:16:41.785Z,12.27
2023-03-05T00:19:09.105Z,8.93
2023-03-05T00:21:38.379Z,11.93
2023-03-05T00:24:08.114Z,14.18
2023-03-05T00:26:37.106Z,11.52
2023-03-05T00:29:04.707Z,15.48
2023-03-05T00:31:34.357Z,13.73
2023-03-05T00:34:03.237Z,8.82
2023-03-05T00:36:30.786Z,9.82
2023-03-05T00:38:58.616Z,10.55
2023-03-05T00:41:25.948Z,11.00
2023-03-05T00:43:53.365Z,10.75
2023-03-05T00:46:20.835Z,11.32
2023-03-05T00:48:48.162Z,9.52
2023-03-05T00:51:15.429Z,11.52
2023-03-05T00:53:42.751Z,12.63
2023-03-05T00:56:16.356Z,12.88
2023-03-05T00:58:43.639Z,11.05
2023-03-05T01:01:10.941Z,14.60
2023-03-05T01:03:38.305Z,14.30
2023-03-05T01:06:09.040Z,13.05
2023-03-05T01:08:36.858Z,10.70
2023-03-05T01:11:04.584Z,20.73
2023-03-05T01:13:31.907Z,14.18
2023-03-05T01:15:59.327Z,10.30
2023-03-05T01:18:26.746Z,11.27
2023-03-05T01:20:54.106Z,10.75
2023-03-05T01:23:21.459Z,12.32
2023-03-05T01:25:56.100Z,10.40
2023-03-05T01:28:23.592Z,13.45
2023-03-05T01:30:51.147Z,14.15
2023-03-05T01:33:18.717Z,11.68
2023-03-05T01:35:50.004Z,8.60
2023-03-05T01:38:17.402Z,15.00
2023-03-05T01:40:45.103Z,8.48
2023-03-05T01:43:12.435Z,16.33
2023-03-05T01:45:40.767Z,14.15
2023-03-05T01:48:08.064Z,13.45
2023-03-05T01:50:35.641Z,11.13
2023-03-05T01:53:04.884Z,11.63
2023-03-05T01:55:33.262Z,16.50
2023-03-05T01:58:03.428Z,9.27
2023-03-05T02:00:32.717Z,15.32
2023-03-05T02:03:02.613Z,9.23
2023-03-05T02:05:31.710Z,12.20
2023-03-05T02:08:03.136Z,12.75
2023-03-05T02:10:35.165Z,8.68
2023-03-05T02:13:04.280Z,9.07
2023-03-05T02:15:31.867Z,12.70
2023-03-05T02:17:59.183Z,11.32
2023-03-05T02:20:28.176Z,11.32
2023-03-05T02:22:55.514Z,12.80
2023-03-05T02:25:30.798Z,13.25
2023-03-05T02:28:00.961Z,14.93
2023-03-05T02:30:28.559Z,12.38
2023-03-05T02:32:56.401Z,12.98
2023-03-05T02:35:23.859Z,21.70
2023-03-05T02:37:51.272Z,16.55
2023-03-05T02:40:18.734Z,17.08
2023-03-05T02:42:46.802Z,18.35
2023-03-05T02:45:14.356Z,18.25
2023-03-05T02:47:41.906Z,16.08
2023-03-05T02:50:09.632Z,18.25
2023-03-05T02:52:37.072Z,15.50
2023-03-05T02:55:04.916Z,21.85
2023-03-05T02:57:32.272Z,21.15
2023-03-05T02:59:59.818Z,15.73
2023-03-05T03:02:27.239Z,21.42
2023-03-05T03:04:54.557Z,17.52
2023-03-05T03:07:21.873Z,15.10
2023-03-05T03:09:49.317Z,10.82
2023-03-05T03:12:16.802Z,16.77
2023-03-05T03:14:44.337Z,18.58
2023-03-05T03:17:15.126Z,13.35
2023-03-05T03:19:42.964Z,16.73
2023-03-05T03:22:10.731Z,16.65
2023-03-05T03:24:38.801Z,20.48
2023-03-05T03:27:06.146Z,13.10
2023-03-05T03:29:33.723Z,12.02
2023-03-05T03:32:01.146Z,12.88
2023-03-05T03:34:28.846Z,8.93
2023-03-05T03:36:56.433Z,13.90
2023-03-05T03:39:25.714Z,9.48
2023-03-05T03:41:53.705Z,10.18
2023-03-05T03:44:21.983Z,12.55
2023-03-05T03:46:50.224Z,11.73
2023-03-05T03:49:25.128Z,11.20
2023-03-05T03:51:54.420Z,14.00
2023-03-05T03:54:23.004Z,11.98
2023-03-05T03:56:50.664Z,8.18
2023-03-05T03:59:17.901Z,11.95
2023-03-05T04:01:45.270Z,10.02
2023-03-05T04:04:13.265Z,6.82
2023-03-05T04:06:40.916Z,10.30
2023-03-05T04:09:08.478Z,14.00
2023-03-05T04:11:36.419Z,8.40
2023-03-05T04:14:04.315Z,13.65
2023-03-05T04:16:31.915Z,10.38
2023-03-05T04:18:59.205Z,14.35
2023-03-05T04:21:26.498Z,11.25
2023-03-05T04:23:54.089Z,9.07
2023-03-05T04:26:21.544Z,21.83
2023-03-05T04:28:49.570Z,8.40
2023-03-05T04:31:17.668Z,11.35
2023-03-05T04:33:45.036Z,16.77
2023-03-05T04:36:12.451Z,9.05
2023-03-05T04:38:39.861Z,10.05
2023-03-05T04:41:07.331Z,11.32
2023-03-05T04:43:34.713Z,7.93
2023-03-05T04:46:02.049Z,10.40
2023-03-05T04:48:29.414Z,13.48
2023-03-05T04:50:58.025Z,14.32
2023-03-05T04:53:25.470Z,8.23
2023-03-05T04:55:56.100Z,16.33
2023-03-05T04:58:23.903Z,10.45
2023-03-05T05:00:51.301Z,9.85
2023-03-05T05:03:18.917Z,13.10
2023-03-05T05:05:46.355Z,8.23
2023-03-05T05:08:13.555Z,10.82
2023-03-05T05:10:41.583Z,10.95
2023-03-05T05:13:08.877Z,8.32
2023-03-05T05:15:36.220Z,10.95
2023-03-05T05:18:03.567Z,9.60
2023-03-05T05:20:31.013Z,14.02
2023-03-05T05:22:58.275Z,8.55
2023-03-05T05:25:25.632Z,11.38
2023-03-05T05:27:52.803Z,13.43
2023-03-05T05:30:20.085Z,11.13
2023-03-05T05:32:47.241Z,8.38
2023-03-05T05:35:14.502Z,11.23
2023-03-05T05:37:41.889Z,14.65
2023-03-05T05:40:09.764Z,13.23
2023-03-05T05:42:37.265Z,10.23
2023-03-05T05:45:04.672Z,10.57
2023-03-05T05:47:32.078Z,8.40
2023-03-05T05:49:59.445Z,14.65
2023-03-05T05:52:26.778Z,9.30
2023-03-05T05:54:54.208Z,12.18
2023-03-05T05:57:21.541Z,11.18
2023-03-05T05:59:48.996Z,10.52
2023-03-05T06:02:16.582Z,8.52
2023-03-05T06:04:43.952Z,12.55
2023-03-05T06:07:11.198Z,9.02
2023-03-05T06:09:38.546Z,10.25
2023-03-05T06:12:06.287Z,12.95
2023-03-05T06:14:35.814Z,12.52
2023-03-05T06:17:03.280Z,14.68
2023-03-05T06:19:30.750Z,13.90
2023-03-05T06:21:58.394Z,8.82
2023-03-05T06:24:25.780Z,14.15
2023-03-05T06:26:53.063Z,12.65
2023-03-05T06:29:20.462Z,16.70
2023-03-05T06:31:47.842Z,14.80
2023-03-05T06:34:15.378Z,14.07
2023-03-05T06:36:46.693Z,11.65
2023-03-05T06:39:14.080Z,14.02
2023-03-05T06:41:41.344Z,18.10
2023-03-05T06:44:08.661Z,17.70
2023-03-05T06:46:39.897Z,15.15
2023-03-05T06:49:09.418Z,17.17
2023-03-05T06:51:38.071Z,15.20
2023-03-05T06:54:10.444Z,15.55
2023-03-05T06:56:39.049Z,12.93
2023-03-05T06:59:07.039Z,20.75
2023-03-05T07:01:34.782Z,20.10
2023-03-05T07:04:03.387Z,16.85
2023-03-05T07:06:33.133Z,18.55
2023-03-05T07:09:02.571Z,14.90
2023-03-05T07:11:31.340Z,15.43
2023-03-05T07:13:59.242Z,14.00
2023-03-05T07:16:27.930Z,15.48
2023-03-05T07:18:55.808Z,14.90
2023-03-05T07:21:24.501Z,15.02
2023-03-05T07:23:53.633Z,13.07
2023-03-05T07:26:21.505Z,14.85
2023-03-05T07:28:49.101Z,16.77
2023-03-05T07:31:19.359Z,14.60
2023-03-05T07:33:47.239Z,17.67
2023-03-05T07:36:14.692Z,14.55
2023-03-05T07:38:42.192Z,13.70
2023-03-05T07:41:11.976Z,11.32
2023-03-05T07:43:40.684Z,10.20
2023-03-05T07:46:08.960Z,15.18
2023-03-05T07:48:36.647Z,10.10
2023-03-05T07:51:05.101Z,12.05
2023-03-05T07:53:32.501Z,7.70
2023-03-05T07:55:59.795Z,11.57
2023-03-05T07:58:27.429Z,7.15
2023-03-05T08:00:54.753Z,7.72
2023-03-05T08:03:22.015Z,8.80
2023-03-05T08:05:49.271Z,10.20
2023-03-05T08:08:16.587Z,9.35
2023-03-05T08:10:43.902Z,10.15
2023-03-05T08:13:11.251Z,10.15
2023-03-05T08:15:38.954Z,9.32
2023-03-05T08:18:06.443Z,10.02
2023-03-05T08:20:36.257Z,12.98
2023-03-05T08:23:03.606Z,12.25
2023-03-05T08:25:31.647Z,7.32
2023-03-05T08:27:58.922Z,8.25
2023-03-05T08:30:27.632Z,8.65
2023-03-05T08:32:55.269Z,7.53
2023-03-05T08:35:22.820Z,10.50
2023-03-05T08:37:50.179Z,6.55
2023-03-05T08:40:20.870Z,9.30
2023-03-05T08:42:48.247Z,7.18
2023-03-05T08:45:15.576Z,9.48
2023-03-05T08:47:42.794Z,8.55
2023-03-05T08:50:10.517Z,10.50
2023-03-05T08:52:37.783Z,8.85
2023-03-05T08:55:05.161Z,6.00
2023-03-05T08:57:32.385Z,11.60
2023-03-05T08:59:59.632Z,5.32
2023-03-05T09:02:27.071Z,5.65
2023-03-05T09:04:54.353Z,6.75
2023-03-05T09:07:21.668Z,6.50
2023-03-05T09:09:48.937Z,7.72
2023-03-05T09:12:16.313Z,6.38
2023-03-05T09:14:43.754Z,5.68
2023-03-05T09:17:10.963Z,9.23
2023-03-05T09:19:38.484Z,5.68
2023-03-05T09:22:05.716Z,7.57
2023-03-05T09:24:32.945Z,7.43
2023-03-05T09:27:03.407Z,8.35
2023-03-05T09:29:31.662Z,7.53
2023-03-05T09:31:59.156Z,5.60
2023-03-05T09:34:26.533Z,4.38
2023-03-05T09:36:53.773Z,5.55
2023-03-05T09:39:23.159Z,6.38
2023-03-05T09:41:53.411Z,6.63
2023-03-05T09:44:29.821Z,8.38
2023-03-05T09:47:15.822Z,6.20
2023-03-05T09:49:46.075Z,7.90
2023-03-05T09:52:21.057Z,5.13
2023-03-05T09:54:54.873Z,4.30
2023-03-05T09:57:28.299Z,6.97
2023-03-05T10:00:02.501Z,6.30
2023-03-05T10:02:36.172Z,4.95
2023-03-05T10:05:27.043Z,6.45
2023-03-05T10:07:56.150Z,8.85
2023-03-05T10:10:40.432Z,5.20
2023-03-05T10:13:27.957Z,4.22
2023-03-05T10:15:55.375Z,4.57
2023-03-05T10:18:28.149Z,4.93
2023-03-05T10:21:05.779Z,6.75
2023-03-05T10:23:40.337Z,5.05
2023-03-05T10:26:11.173Z,4.80
2023-03-05T10:28:57.354Z,4.93
2023-03-05T10:31:35.143Z,5.72
2023-03-05T10:34:09.509Z,3.70
2023-03-05T10:36:46.997Z,4.45
2023-03-05T10:39:33.439Z,3.25
2023-03-05T10:42:12.054Z,4.28
2023-03-05T10:44:47.283Z,5.82
2023-03-05T10:47:22.829Z,4.75
2023-03-05T10:49:54.044Z,4.07
2023-03-05T10:52:24.993Z,5.70
2023-03-05T10:54:52.259Z,8.00
2023-03-05T10:57:20.782Z,4.88
2023-03-05T10:59:53.283Z,5.15
2023-03-05T11:02:21.756Z,7.07
2023-03-05T11:04:49.370Z,3.13
2023-03-05T11:07:16.749Z,3.60
2023-03-05T11:09:44.730Z,4.20
2023-03-05T11:12:15.052Z,5.68
2023-03-05T11:14:49.170Z,4.47
2023-03-05T11:17:36.347Z,4.78
2023-03-05T11:20:22.492Z,2.38
2023-03-05T11:23:04.047Z,3.65
2023-03-05T11:25:31.474Z,4.25
2023-03-05T11:28:00.581Z,3.58
2023-03-05T11:30:35.757Z,4.90
2023-03-05T11:33:19.712Z,6.13
2023-03-05T11:35:48.572Z,3.70
2023-03-05T11:38:18.454Z,4.82
2023-03-05T11:40:46.519Z,4.65
2023-03-05T11:43:16.795Z,3.88
2023-03-05T11:45:48.104Z,4.03
2023-03-05T11:48:19.504Z,4.78
2023-03-05T11:50:50.203Z,3.13
2023-03-05T11:53:28.349Z,3.85
2023-03-05T11:55:55.795Z,3.30
2023-03-05T11:58:23.151Z,3.08
2023-03-05T12:00:51.172Z,4.90
2023-03-05T12:03:20.570Z,2.95
2023-03-05T12:05:49.722Z,6.35
2023-03-05T12:08:21.495Z,4.50
2023-03-05T12:10:48.911Z,4.13
2023-03-05T12:13:24.308Z,4.18
2023-03-05T12:15:58.244Z,4.18
2023-03-05T12:18:39.173Z,3.33
2023-03-05T12:21:26.816Z,4.85
2023-03-05T12:24:02.200Z,2.13
2023-03-05T12:26:51.395Z,3.65
2023-03-05T12:29:41.284Z,3.13
2023-03-05T12:32:31.755Z,2.70
2023-03-05T12:34:59.002Z,2.45
2023-03-05T12:37:26.692Z,2.55
2023-03-05T12:40:07.270Z,3.42
2023-03-05T12:42:38.637Z,3.90
2023-03-05T12:45:13.181Z,2.65
2023-03-05T12:47:41.543Z,3.08
2023-03-05T12:50:27.827Z,2.42
2023-03-05T12:53:07.377Z,2.80
2023-03-05T12:55:34.890Z,2.90
2023-03-05T12:58:13.843Z,4.40
2023-03-05T13:00:45.845Z,5.55
2023-03-05T13:03:19.012Z,6.32
2023-03-05T13:05:51.380Z,3.20
2023-03-05T13:08:21.882Z,3.42
2023-03-05T13:11:09.329Z,6.35
2023-03-05T13:13:39.099Z,3.78
2023-03-05T13:16:07.062Z,2.88
2023-03-05T13:18:36.049Z,3.25
2023-03-05T13:21:05.216Z,5.05
2023-03-05T13:23:33.192Z,2.58
2023-03-05T13:26:18.872Z,2.67
2023-03-05T13:29:03.208Z,3.50
2023-03-05T13:31:31.106Z,4.40
2023-03-05T13:34:00.303Z,3.33
2023-03-05T13:36:27.878Z,2.55
2023-03-05T13:38:55.409Z,3.58
2023-03-05T13:41:24.592Z,3.85
2023-03-05T13:43:53.437Z,5.43
2023-03-05T13:46:26.712Z,3.13
2023-03-05T13:48:54.152Z,5.35
2023-03-05T13:51:21.805Z,4.57
2023-03-05T13:53:51.163Z,3.92
2023-03-05T13:56:20.476Z,3.60
2023-03-05T13:58:52.587Z,4.30
2023-03-05T14:01:23.187Z,4.93
2023-03-05T14:03:56.133Z,4.82
2023-03-05T14:06:24.751Z,3.50
2023-03-05T14:08:53.392Z,5.10
2023-03-05T14:11:24.465Z,3.05
2023-03-05T14:13:59.136Z,5.32
2023-03-05T14:16:28.146Z,3.50
2023-03-05T14:18:55.417Z,3.30
2023-03-05T14:21:23.069Z,3.65
2023-03-05T14:23:53.025Z,6.25
2023-03-05T14:26:28.980Z,6.28
2023-03-05T14:28:57.817Z,3.05
2023-03-05T14:31:25.531Z,5.13
2023-03-05T14:33:53.080Z,3.50
2023-03-05T14:36:27.092Z,5.25
2023-03-05T14:38:54.726Z,2.85
2023-03-05T14:41:23.184Z,4.78
2023-03-05T14:43:50.502Z,5.05
2023-03-05T14:46:17.924Z,4.55
2023-03-05T14:48:46.132Z,5.00
2023-03-05T14:51:13.493Z,3.28
2023-03-05T14:53:47.670Z,5.43
2023-03-05T14:56:28.592Z,5.32
2023-03-05T14:58:57.513Z,4.47
2023-03-05T15:01:25.481Z,2.90
2023-03-05T15:03:52.834Z,5.88
2023-03-05T15:06:30.725Z,4.45
2023-03-05T15:08:57.970Z,3.88
2023-03-05T15:11:25.288Z,3.78
2023-03-05T15:13:52.529Z,4.03
2023-03-05T15:16:20.131Z,4.50
2023-03-05T15:18:47.414Z,3.97
2023-03-05T15:21:14.673Z,5.53
2023-03-05T15:23:41.931Z,5.13
2023-03-05T15:26:10.098Z,4.72
2023-03-05T15:28:38.121Z,6.10
2023-03-05T15:31:06.045Z,3.05
2023-03-05T15:33:33.698Z,5.95
2023-03-05T15:36:01.118Z,3.55
2023-03-05T15:38:28.355Z,4.45
2023-03-05T15:40:55.747Z,3.63
2023-03-05T15:43:23.047Z,3.95
2023-03-05T15:45:50.352Z,4.68
2023-03-05T15:48:17.599Z,4.45
2023-03-05T15:50:45.400Z,4.30
2023-03-05T15:53:16.313Z,6.57
2023-03-05T15:55:44.058Z,5.13
2023-03-05T15:58:14.389Z,3.55
2023-03-05T16:00:41.883Z,3.53
2023-03-05T16:03:09.181Z,9.00
2023-03-05T16:05:37.572Z,5.38
2023-03-05T16:08:05.039Z,4.55
2023-03-05T16:10:32.503Z,3.63
2023-03-05T16:13:04.999Z,10.40
2023-03-05T16:15:33.203Z,3.95
2023-03-05T16:18:03.269Z,5.18
2023-03-05T16:20:30.521Z,4.90
2023-03-05T16:22:57.942Z,5.20
2023-03-05T16:25:25.212Z,6.18
2023-03-05T16:27:52.549Z,6.35
2023-03-05T16:30:20.050Z,7.38
2023-03-05T16:32:47.371Z,8.00
2023-03-05T16:35:14.738Z,3.42
2023-03-05T16:37:42.318Z,5.15
2023-03-05T16:40:10.878Z,5.10
2023-03-05T16:42:38.166Z,3.40
2023-03-05T16:45:06.125Z,3.13
2023-03-05T16:47:33.635Z,4.90
2023-03-05T16:50:01.162Z,5.38
2023-03-05T16:52:29.118Z,3.47
2023-03-05T16:54:56.380Z,9.77
2023-03-05T16:57:25.747Z,6.05
2023-03-05T16:59:54.375Z,4.05
2023-03-05T17:02:21.720Z,4.07
2023-03-05T17:04:50.499Z,5.50
2023-03-05T17:07:18.173Z,8.15
2023-03-05T17:09:45.971Z,9.07
2023-03-05T17:12:13.314Z,5.68
2023-03-05T17:14:40.560Z,5.97
2023-03-05T17:17:08.199Z,4.57
2023-03-05T17:19:35.514Z,7.75
2023-03-05T17:22:03.101Z,5.57
2023-03-05T17:24:32.988Z,7.55
2023-03-05T17:27:00.728Z,7.80
2023-03-05T17:29:28.077Z,7.28
2023-03-05T17:31:55.530Z,5.60
2023-03-05T17:34:35.453Z,5.35
2023-03-05T17:37:04.329Z,7.47
2023-03-05T17:39:31.558Z,4.55
2023-03-05T17:41:58.922Z,7.15
2023-03-05T17:44:26.160Z,7.47
2023-03-05T17:46:53.481Z,9.57
2023-03-05T17:49:22.143Z,4.82
2023-03-05T17:51:49.323Z,7.68
2023-03-05T17:54:16.790Z,4.18
2023-03-05T17:56:44.114Z,5.93
2023-03-05T17:59:11.498Z,4.63
2023-03-05T18:01:38.792Z,4.82
2023-03-05T18:04:06.141Z,4.47
2023-03-05T18:06:33.472Z,4.55
2023-03-05T18:09:00.674Z,6.35
2023-03-05T18:11:30.222Z,6.38
2023-03-05T18:13:57.728Z,4.57
2023-03-05T18:16:25.290Z,4.82
2023-03-05T18:18:52.956Z,4.72
2023-03-05T18:21:23.104Z,6.60
2023-03-05T18:23:51.096Z,4.53
2023-03-05T18:26:18.500Z,7.82
2023-03-05T18:28:45.836Z,8.30
2023-03-05T18:31:13.155Z,5.03
2023-03-05T18:33:41.159Z,5.25
2023-03-05T18:36:10.760Z,5.10
2023-03-05T18:38:38.562Z,6.00
2023-03-05T18:41:06.524Z,6.07
2023-03-05T18:43:33.750Z,5.10
2023-03-05T18:46:04.821Z,7.60
2023-03-05T18:48:32.129Z,7.05
2023-03-05T18:51:00.297Z,9.18
2023-03-05T18:53:29.358Z,8.93
2023-03-05T18:55:56.544Z,5.93
2023-03-05T18:58:25.922Z,6.45
2023-03-05T19:00:53.316Z,6.13
2023-03-05T19:03:22.566Z,7.07
2023-03-05T19:05:51.203Z,8.45
2023-03-05T19:08:18.778Z,6.15
2023-03-05T19:10:46.195Z,4.80
2023-03-05T19:13:39.967Z,4.93
2023-03-05T19:16:37.081Z,9.00
2023-03-05T19:19:20.195Z,5.10
2023-03-05T19:21:48.903Z,6.88
2023-03-05T19:24:16.659Z,5.95
2023-03-05T19:26:44.709Z,7.07
2023-03-05T19:29:12.326Z,6.95
2023-03-05T19:31:39.657Z,6.57
2023-03-05T19:34:07.592Z,7.32
2023-03-05T19:36:36.327Z,8.73
2023-03-05T19:39:05.186Z,10.02
2023-03-05T19:41:32.472Z,9.52
2023-03-05T19:43:59.719Z,8.05
2023-03-05T19:46:27.128Z,9.68
2023-03-05T19:48:54.500Z,11.73
2023-03-05T19:51:22.493Z,9.18
2023-03-05T19:53:49.934Z,11.35
2023-03-05T19:56:17.740Z,12.65
2023-03-05T19:58:45.578Z,9.40
2023-03-05T20:01:17.624Z,12.77
2023-03-05T20:03:46.046Z,8.13
2023-03-05T20:06:14.685Z,7.32
2023-03-05T20:08:41.953Z,11.40
2023-03-05T20:11:10.805Z,9.38
2023-03-05T20:13:38.645Z,8.98
2023-03-05T20:16:06.477Z,7.07
2023-03-05T20:18:34.081Z,7.40
2023-03-05T20:21:03.379Z,6.50
2023-03-05T20:23:30.907Z,6.85
2023-03-05T20:25:58.165Z,11.13
2023-03-05T20:28:28.187Z,8.48
2023-03-05T20:30:56.250Z,9.23
2023-03-05T20:33:23.938Z,8.80
2023-03-05T20:35:51.603Z,5.18
2023-03-05T20:38:24.994Z,6.03
2023-03-05T20:40:56.271Z,7.20
2023-03-05T20:43:24.189Z,9.55
2023-03-05T20:45:53.183Z,5.53
2023-03-05T20:48:20.682Z,6.60
2023-03-05T20:50:48.162Z,5.18
2023-03-05T20:53:15.818Z,7.32
2023-03-05T20:55:43.207Z,6.10
2023-03-05T20:58:10.842Z,6.70
2023-03-05T21:00:38.690Z,8.68
2023-03-05T21:03:06.160Z,6.15
2023-03-05T21:05:33.785Z,7.93
2023-03-05T21:08:01.675Z,5.97
2023-03-05T21:10:29.106Z,7.60
2023-03-05T21:12:56.530Z,9.82
2023-03-05T21:15:26.379Z,7.57
2023-03-05T21:17:54.057Z,10.30
2023-03-05T21:20:22.885Z,18.10
2023-03-05T21:22:50.385Z,14.05
2023-03-05T21:25:21.905Z,11.23
2023-03-05T21:27:57.440Z,8.35
2023-03-05T21:30:34.409Z,12.40
2023-03-05T21:33:02.659Z,9.48
2023-03-05T21:35:32.960Z,10.38
2023-03-05T21:38:00.966Z,5.63
2023-03-05T21:40:28.952Z,9.25
2023-03-05T21:42:56.497Z,6.47
2023-03-05T21:45:25.036Z,8.50
2023-03-05T21:47:52.837Z,12.63
2023-03-05T21:50:21.383Z,7.28
2023-03-05T21:52:48.601Z,8.65
2023-03-05T21:55:17.504Z,10.75
2023-03-05T21:57:45.130Z,8.43
2023-03-05T22:00:13.310Z,9.38
2023-03-05T22:02:41.308Z,9.35
2023-03-05T22:05:12.767Z,8.77
2023-03-05T22:07:40.576Z,11.27
2023-03-05T22:10:08.348Z,10.43
2023-03-05T22:12:52.720Z,7.88
2023-03-05T22:15:20.456Z,7.72
2023-03-05T22:17:48.866Z,8.40
2023-03-05T22:20:16.503Z,6.28
2023-03-05T22:22:43.724Z,7.80
2023-03-05T22:25:13.819Z,14.93
2023-03-05T22:27:41.542Z,6.45
2023-03-05T22:30:10.010Z,6.88
2023-03-05T22:32:37.612Z,10.48
2023-03-05T22:35:06.847Z,12.25
2023-03-05T22:37:34.204Z,13.65
2023-03-05T22:40:01.509Z,10.85
2023-03-05T22:42:28.863Z,9.60
2023-03-05T22:44:57.315Z,12.68
2023-03-05T22:47:25.397Z,11.98
2023-03-05T22:49:52.944Z,14.38
2023-03-05T22:52:20.846Z,12.45
2023-03-05T22:54:48.311Z,9.48
2023-03-05T22:57:15.740Z,9.15
2023-03-05T22:59:43.201Z,12.43
2023-03-05T23:02:10.785Z,11.63
2023-03-05T23:04:49.097Z,7.47
2023-03-05T23:07:17.832Z,6.78
2023-03-05T23:09:45.347Z,6.15
2023-03-05T23:12:13.359Z,6.35
2023-03-05T23:14:40.632Z,5.43
2023-03-05T23:17:08.024Z,9.43
2023-03-05T23:19:39.814Z,6.80
2023-03-05T23:22:07.612Z,8.70
2023-03-05T23:24:35.070Z,10.05
2023-03-05T23:27:05.328Z,6.72
2023-03-05T23:29:40.479Z,7.43
2023-03-05T23:32:08.073Z,7.63
2023-03-05T23:34:36.661Z,11.65
2023-03-05T23:37:03.891Z,9.05
2023-03-05T23:39:31.186Z,10.48
2023-03-05T23:41:58.457Z,11.98
2023-03-05T23:44:25.668Z,11.20
2023-03-05T23:46:53.040Z,10.25
2023-03-05T23:49:20.551Z,6.57
2023-03-05T23:51:47.820Z,8.82
2023-03-05T23:54:15.097Z,9.05
2023-03-05T23:56:42.331Z,9.13
2023-03-05T23:59:09.581Z,13.75
